Time;durP1;ratioP1;P1;durP2;ratioP2;P2;SDS_P1;SDS_P2;PMS_P1;PMS_P2;Temp;Humidity;BMP_temperature;BMP_pressure;BME280_temperature;BME280_humidity;BME280_pressure;Samples;Min_cycle;Max_cycle;Signal;HPM_P1;HPM_P2
2020/12/05 00:00:49;;;;;;;1.80;1.70;;;4.70;98.20;;;;;;5075573;28;20731;-77
2020/12/05 00:03:15;;;;;;;1.60;1.40;;;4.70;98.20;;;;;;5074616;28;20486;-77
2020/12/05 00:05:42;;;;;;;1.60;1.40;;;4.70;98.20;;;;;;5082842;28;20462;-76
2020/12/05 00:08:09;;;;;;;1.60;1.40;;;4.70;98.20;;;;;;5077023;28;20493;-77
2020/12/05 00:10:36;;;;;;;1.60;1.40;;;4.70;98.20;;;;;;5082527;28;20454;-77
2020/12/05 00:13:03;;;;;;;1.60;1.40;;;4.70;98.20;;;;;;5082554;28;20703;-76
2020/12/05 00:15:29;;;;;;;1.60;1.40;;;4.80;98.20;;;;;;5080947;28;20553;-76
2020/12/05 00:17:56;;;;;;;1.70;1.53;;;4.80;98.20;;;;;;5066237;28;20462;-77
2020/12/05 00:20:22;;;;;;;1.70;1.50;;;4.80;98.20;;;;;;5078227;28;20461;-77
2020/12/05 00:22:49;;;;;;;1.60;1.40;;;4.80;98.20;;;;;;5083983;28;20454;-78
2020/12/05 00:25:16;;;;;;;1.60;1.30;;;4.80;98.20;;;;;;5068773;28;20486;-77
2020/12/05 00:27:43;;;;;;;1.60;1.40;;;4.80;98.20;;;;;;5079321;28;20464;-77
2020/12/05 00:30:10;;;;;;;1.60;1.40;;;4.80;98.20;;;;;;5084418;28;20450;-78
2020/12/05 00:32:36;;;;;;;1.60;1.30;;;4.90;98.20;;;;;;5083823;28;20953;-76
2020/12/05 00:35:03;;;;;;;1.60;1.33;;;4.90;98.20;;;;;;5084331;28;20497;-77
2020/12/05 00:37:30;;;;;;;1.60;1.50;;;4.90;98.20;;;;;;5084949;28;20450;-77
2020/12/05 00:39:57;;;;;;;1.60;1.43;;;4.90;98.20;;;;;;5085810;28;20481;-78
2020/12/05 00:42:25;;;;;;;1.60;1.40;;;4.90;98.20;;;;;;5083984;28;20480;-78
2020/12/05 00:44:51;;;;;;;1.60;1.37;;;4.90;98.20;;;;;;5084672;28;20545;-77
2020/12/05 00:47:18;;;;;;;1.60;1.30;;;4.90;98.20;;;;;;5079914;28;20461;-78
2020/12/05 00:49:45;;;;;;;1.60;1.40;;;4.90;98.20;;;;;;5081742;28;20442;-77
2020/12/05 00:52:12;;;;;;;1.60;1.30;;;4.90;98.20;;;;;;5075346;28;20533;-78
2020/12/05 00:54:38;;;;;;;1.60;1.30;;;4.90;98.20;;;;;;5073881;28;20489;-78
2020/12/05 00:57:05;;;;;;;1.60;1.30;;;4.90;98.20;;;;;;5075826;28;20515;-78
2020/12/05 00:59:32;;;;;;;1.60;1.40;;;4.90;98.20;;;;;;5082062;28;20490;-78
2020/12/05 01:01:58;;;;;;;1.60;1.40;;;4.90;98.20;;;;;;5073369;28;20459;-80
2020/12/05 01:04:25;;;;;;;1.60;1.40;;;4.90;98.20;;;;;;5070241;28;20483;-77
2020/12/05 01:06:51;;;;;;;1.60;1.37;;;4.90;98.20;;;;;;5080539;28;20459;-81
2020/12/05 01:09:18;;;;;;;1.60;1.37;;;4.90;98.20;;;;;;5080362;28;20759;-79
2020/12/05 01:11:46;;;;;;;1.60;1.40;;;4.90;98.20;;;;;;5080823;28;20458;-78
2020/12/05 01:14:12;;;;;;;1.70;1.60;;;4.90;98.20;;;;;;5070022;28;20994;-78
2020/12/05 01:16:40;;;;;;;1.60;1.40;;;4.90;98.20;;;;;;5078118;28;20505;-78
2020/12/05 01:19:06;;;;;;;1.60;1.30;;;4.90;98.20;;;;;;5076367;28;21066;-78
2020/12/05 01:21:33;;;;;;;1.60;1.30;;;4.90;98.20;;;;;;5078754;28;20519;-78
2020/12/05 01:23:59;;;;;;;1.60;1.40;;;4.90;98.20;;;;;;5072011;28;20514;-76
2020/12/05 01:26:26;;;;;;;1.60;1.30;;;4.90;98.20;;;;;;5064266;28;20458;-78
2020/12/05 01:28:52;;;;;;;1.60;1.47;;;4.90;98.20;;;;;;5069618;28;20678;-76
2020/12/05 01:31:18;;;;;;;1.60;1.30;;;4.90;98.20;;;;;;5083806;28;20457;-76
2020/12/05 01:33:46;;;;;;;1.60;1.40;;;4.90;98.20;;;;;;5086761;28;20481;-77
2020/12/05 01:36:12;;;;;;;1.60;1.40;;;4.90;98.20;;;;;;5087462;28;20890;-77
2020/12/05 01:38:39;;;;;;;1.60;1.30;;;4.90;98.20;;;;;;5085320;28;20504;-77
2020/12/05 01:41:06;;;;;;;1.60;1.40;;;4.90;98.20;;;;;;5082695;28;20488;-77
2020/12/05 01:43:33;;;;;;;1.60;1.30;;;4.90;98.20;;;;;;5089132;28;20454;-77
2020/12/05 01:46:00;;;;;;;1.60;1.30;;;4.90;98.20;;;;;;5083008;28;20465;-77
2020/12/05 01:48:27;;;;;;;1.60;1.30;;;4.90;98.20;;;;;;5082797;28;20454;-78
2020/12/05 01:50:55;;;;;;;1.60;1.40;;;5.00;98.20;;;;;;5076695;28;20508;-77
2020/12/05 01:53:22;;;;;;;1.60;1.30;;;5.00;98.20;;;;;;5083867;28;20493;-77
2020/12/05 01:55:50;;;;;;;1.63;1.40;;;5.00;98.20;;;;;;5085323;28;20603;-77
2020/12/05 01:58:17;;;;;;;9.03;6.20;;;5.00;98.20;;;;;;5085917;28;20735;-77
2020/12/05 02:00:45;;;;;;;2.53;2.33;;;5.00;98.20;;;;;;5085858;28;20466;-77
2020/12/05 02:03:15;;;;;;;1.60;1.40;;;5.00;98.20;;;;;;5084922;28;20474;-77
2020/12/05 02:06:07;;;;;;;9.67;8.97;;;5.00;98.20;;;;;;5087578;28;20572;-77
2020/12/05 02:08:41;;;;;;;1.60;1.47;;;5.00;98.20;;;;;;5072000;28;20457;-78
2020/12/05 02:11:11;;;;;;;1.60;1.33;;;5.00;98.20;;;;;;5076749;28;20473;-76
2020/12/05 02:13:46;;;;;;;1.60;1.40;;;5.00;98.20;;;;;;5084586;28;20735;-76
2020/12/05 02:16:13;;;;;;;1.60;1.40;;;5.00;98.20;;;;;;5072989;28;20469;-77
2020/12/05 02:18:41;;;;;;;1.60;1.40;;;5.00;98.20;;;;;;5067564;28;20529;-76
2020/12/05 02:21:11;;;;;;;1.60;1.30;;;5.00;98.20;;;;;;5083516;28;20607;-76
2020/12/05 02:23:39;;;;;;;1.60;1.30;;;5.00;98.20;;;;;;5086955;28;20462;-77
2020/12/05 02:26:09;;;;;;;1.60;1.30;;;5.00;98.20;;;;;;5081167;28;20458;-77
2020/12/05 02:28:35;;;;;;;1.60;1.40;;;4.90;98.20;;;;;;5087381;28;20949;-78
2020/12/05 02:31:02;;;;;;;1.60;1.40;;;4.90;98.20;;;;;;5086694;28;20498;-78
2020/12/05 02:33:29;;;;;;;1.60;1.40;;;4.90;98.20;;;;;;5084267;28;20466;-77
2020/12/05 02:35:55;;;;;;;1.60;1.33;;;4.90;98.20;;;;;;5085304;28;20450;-77
2020/12/05 02:38:26;;;;;;;1.60;1.30;;;4.90;98.20;;;;;;5087807;28;20466;-78
2020/12/05 02:40:53;;;;;;;1.60;1.40;;;4.90;98.20;;;;;;5086093;28;20458;-78
2020/12/05 02:43:20;;;;;;;1.60;1.40;;;4.90;98.20;;;;;;5083036;28;20458;-78
2020/12/05 02:45:46;;;;;;;1.63;1.53;;;4.90;98.20;;;;;;5080095;28;20459;-78
2020/12/05 02:48:13;;;;;;;1.60;1.30;;;5.00;98.20;;;;;;5083218;28;20470;-78
2020/12/05 02:50:39;;;;;;;1.60;1.40;;;4.90;98.20;;;;;;5081933;28;20466;-78
2020/12/05 02:53:06;;;;;;;1.60;1.40;;;4.90;98.20;;;;;;5083877;28;20458;-81
2020/12/05 02:55:32;;;;;;;1.60;1.50;;;4.90;98.20;;;;;;5081595;28;20479;-77
2020/12/05 02:58:00;;;;;;;1.60;1.30;;;4.90;98.20;;;;;;5081553;28;20457;-76
2020/12/05 03:00:26;;;;;;;1.60;1.30;;;4.90;98.20;;;;;;5074351;28;20993;-77
2020/12/05 03:02:53;;;;;;;1.60;1.30;;;4.90;98.20;;;;;;5078024;28;20454;-77
2020/12/05 03:05:19;;;;;;;1.60;1.30;;;4.90;98.20;;;;;;5083960;28;20985;-77
2020/12/05 03:07:46;;;;;;;1.60;1.30;;;4.80;98.20;;;;;;5083293;28;20504;-77
2020/12/05 03:10:14;;;;;;;1.60;1.30;;;4.80;98.20;;;;;;5079725;28;20470;-77
2020/12/05 03:12:40;;;;;;;1.60;1.30;;;4.80;98.20;;;;;;5083862;28;20466;-78
2020/12/05 03:15:07;;;;;;;1.60;1.40;;;4.80;98.20;;;;;;5073720;28;21012;-78
2020/12/05 03:17:34;;;;;;;1.60;1.40;;;4.80;98.20;;;;;;5070532;28;20649;-78
2020/12/05 03:20:01;;;;;;;1.60;1.50;;;4.80;98.20;;;;;;5071236;28;21077;-77
2020/12/05 03:22:28;;;;;;;1.60;1.30;;;4.80;98.20;;;;;;5085305;28;20473;-77
2020/12/05 03:24:55;;;;;;;1.60;1.40;;;4.80;98.20;;;;;;5079863;28;20482;-76
2020/12/05 03:27:21;;;;;;;1.70;1.60;;;4.70;98.20;;;;;;5083944;28;20450;-77
2020/12/05 03:29:50;;;;;;;1.60;1.30;;;4.70;98.20;;;;;;5081772;28;20450;-77
2020/12/05 03:32:20;;;;;;;1.60;1.40;;;4.70;98.20;;;;;;5085509;28;21026;-77
2020/12/05 03:34:47;;;;;;;1.60;1.50;;;4.80;98.20;;;;;;5080436;28;20532;-77
2020/12/05 03:37:13;;;;;;;1.60;1.30;;;4.80;98.20;;;;;;5079192;28;20533;-77
2020/12/05 03:39:40;;;;;;;1.60;1.40;;;4.80;98.20;;;;;;5078983;28;20478;-77
2020/12/05 03:42:06;;;;;;;1.60;1.30;;;4.80;98.20;;;;;;5077848;28;20463;-78
2020/12/05 03:44:32;;;;;;;1.60;1.50;;;4.90;98.20;;;;;;5077719;28;20481;-77
2020/12/05 03:46:59;;;;;;;1.60;1.43;;;4.90;98.20;;;;;;5079949;28;20462;-77
2020/12/05 03:49:31;;;;;;;1.60;1.20;;;4.90;98.20;;;;;;5074917;28;20486;-77
2020/12/05 03:51:58;;;;;;;1.60;1.40;;;4.90;98.20;;;;;;5078494;28;20536;-77
2020/12/05 03:54:24;;;;;;;1.60;1.40;;;4.90;98.20;;;;;;5080920;28;20751;-77
2020/12/05 03:56:51;;;;;;;1.60;1.40;;;4.90;98.20;;;;;;5075939;28;20474;-77
2020/12/05 03:59:17;;;;;;;1.60;1.30;;;4.90;98.20;;;;;;5077379;28;20489;-77
2020/12/05 04:01:44;;;;;;;1.60;1.40;;;4.90;98.20;;;;;;5083017;28;20480;-77
2020/12/05 04:04:10;;;;;;;1.63;1.53;;;4.90;98.20;;;;;;5076063;28;20520;-78
2020/12/05 04:06:38;;;;;;;1.70;1.60;;;4.90;98.20;;;;;;5080151;28;20827;-77
2020/12/05 04:09:04;;;;;;;1.60;1.40;;;4.90;98.20;;;;;;5076732;28;20473;-77
2020/12/05 04:11:31;;;;;;;1.60;1.40;;;4.90;98.20;;;;;;5081236;28;20667;-77
2020/12/05 04:13:58;;;;;;;1.60;1.30;;;4.90;98.20;;;;;;5078203;28;21036;-77
2020/12/05 04:16:24;;;;;;;1.60;1.40;;;4.90;98.20;;;;;;5073098;28;20473;-77
2020/12/05 04:18:50;;;;;;;1.70;1.50;;;4.90;98.20;;;;;;5072797;28;20511;-77
2020/12/05 04:21:17;;;;;;;1.60;1.40;;;4.90;98.20;;;;;;5082528;28;20496;-78
2020/12/05 04:23:44;;;;;;;1.60;1.37;;;4.90;98.20;;;;;;5079607;28;20587;-77
2020/12/05 04:26:11;;;;;;;1.60;1.30;;;4.90;98.20;;;;;;5080492;28;20479;-77
2020/12/05 04:28:37;;;;;;;1.63;1.53;;;4.90;98.20;;;;;;5083311;28;20938;-77
2020/12/05 04:31:04;;;;;;;1.60;1.40;;;4.90;98.20;;;;;;5080760;28;20945;-77
2020/12/05 04:33:30;;;;;;;1.60;1.30;;;4.90;98.20;;;;;;5084819;28;20457;-78
2020/12/05 04:35:57;;;;;;;1.60;1.30;;;4.90;98.20;;;;;;5085086;28;20454;-76
2020/12/05 04:38:23;;;;;;;1.60;1.50;;;4.90;98.20;;;;;;5082210;28;20488;-77
2020/12/05 04:40:54;;;;;;;1.60;1.30;;;4.90;98.20;;;;;;5071399;28;20466;-76
2020/12/05 04:43:21;;;;;;;1.60;1.30;;;4.90;98.20;;;;;;5077460;28;20936;-76
2020/12/05 04:45:48;;;;;;;1.60;1.50;;;4.90;98.20;;;;;;5084172;28;20473;-77
2020/12/05 04:48:16;;;;;;;1.60;1.43;;;4.90;98.20;;;;;;5071771;28;20482;-77
2020/12/05 04:50:46;;;;;;;1.60;1.40;;;4.90;98.20;;;;;;5074876;28;20450;-77
2020/12/05 04:53:17;;;;;;;1.60;1.47;;;4.80;98.20;;;;;;5084980;28;20442;-77
2020/12/05 04:55:44;;;;;;;1.60;1.30;;;4.80;98.20;;;;;;5078750;28;20504;-78
2020/12/05 04:58:19;;;;;;;1.60;1.40;;;4.80;98.20;;;;;;5076446;28;20507;-77
2020/12/05 05:00:47;;;;;;;1.67;1.53;;;4.80;98.20;;;;;;5083717;28;20445;-79
2020/12/05 05:03:19;;;;;;;1.60;1.30;;;4.80;98.20;;;;;;5080577;28;20543;-78
2020/12/05 05:05:45;;;;;;;1.60;1.50;;;4.70;98.20;;;;;;5085989;28;20474;-76
2020/12/05 05:08:12;;;;;;;4.13;3.83;;;4.70;98.20;;;;;;5086175;28;20454;-78
2020/12/05 05:10:39;;;;;;;1.60;1.50;;;4.70;98.20;;;;;;5085805;28;20454;-78
2020/12/05 05:13:12;;;;;;;1.60;1.30;;;4.70;98.20;;;;;;5077900;28;20497;-77
2020/12/05 05:15:40;;;;;;;1.60;1.30;;;4.70;98.20;;;;;;5072197;28;20477;-78
2020/12/05 05:18:08;;;;;;;1.60;1.40;;;4.60;98.20;;;;;;5079472;28;20443;-77
2020/12/05 05:20:39;;;;;;;1.60;1.40;;;4.60;98.20;;;;;;5079981;28;20536;-78
2020/12/05 05:23:14;;;;;;;1.60;1.50;;;4.60;98.20;;;;;;5082578;28;20526;-77
2020/12/05 05:25:57;;;;;;;1.60;1.50;;;4.60;98.20;;;;;;5077005;28;20473;-77
2020/12/05 05:28:27;;;;;;;1.60;1.40;;;4.60;98.20;;;;;;5082131;28;20480;-76
2020/12/05 05:30:57;;;;;;;1.60;1.43;;;4.50;98.20;;;;;;5074661;28;20454;-76
2020/12/05 05:33:24;;;;;;;1.60;1.40;;;4.50;98.20;;;;;;5072705;28;20991;-74
2020/12/05 05:35:50;;;;;;;1.60;1.40;;;4.50;98.20;;;;;;5076299;28;20515;-76
2020/12/05 05:38:22;;;;;;;1.60;1.40;;;4.40;98.20;;;;;;5082450;28;20480;-77
2020/12/05 05:40:49;;;;;;;1.60;1.40;;;4.40;98.20;;;;;;5081539;28;20526;-76
2020/12/05 05:43:18;;;;;;;1.60;1.30;;;4.40;98.20;;;;;;5079986;28;20454;-76
2020/12/05 05:45:46;;;;;;;1.60;1.40;;;4.40;98.20;;;;;;5081198;28;20469;-75
2020/12/05 05:48:13;;;;;;;1.60;1.50;;;4.40;98.20;;;;;;5083907;28;20969;-77
2020/12/05 05:50:40;;;;;;;1.70;1.60;;;4.40;98.20;;;;;;5079798;28;20461;-76
2020/12/05 05:53:09;;;;;;;1.60;1.40;;;4.30;98.20;;;;;;5087279;28;20476;-75
2020/12/05 05:55:44;;;;;;;1.60;1.47;;;4.30;98.20;;;;;;5083941;28;20504;-76
2020/12/05 05:58:11;;;;;;;1.60;1.40;;;4.30;98.20;;;;;;5075182;28;20465;-77
2020/12/05 06:00:40;;;;;;;1.60;1.50;;;4.20;98.20;;;;;;5077156;28;20542;-76
2020/12/05 06:03:18;;;;;;;1.60;1.40;;;4.20;98.20;;;;;;5069860;28;20574;-75
2020/12/05 06:05:46;;;;;;;1.60;1.30;;;4.10;98.20;;;;;;5080410;28;20557;-77
2020/12/05 06:08:18;;;;;;;1.87;1.77;;;4.10;98.20;;;;;;5074191;28;20458;-76
2020/12/05 06:10:52;;;;;;;1.67;1.50;;;4.10;98.20;;;;;;5083968;28;20450;-76
2020/12/05 06:13:19;;;;;;;1.70;1.50;;;4.00;98.20;;;;;;5080116;28;20470;-77
2020/12/05 06:15:46;;;;;;;1.60;1.40;;;4.00;98.20;;;;;;5079250;28;20496;-76
2020/12/05 06:18:14;;;;;;;1.60;1.30;;;4.00;98.20;;;;;;5075798;28;20459;-76
2020/12/05 06:20:45;;;;;;;1.70;1.50;;;4.00;98.20;;;;;;5079867;28;20482;-76
2020/12/05 06:23:20;;;;;;;1.60;1.50;;;3.90;98.20;;;;;;5075683;28;20525;-76
2020/12/05 06:25:52;;;;;;;1.60;1.40;;;3.90;98.20;;;;;;5076423;28;20449;-76
2020/12/05 06:28:20;;;;;;;1.63;1.40;;;3.90;98.20;;;;;;5078509;28;20462;-76
2020/12/05 06:30:47;;;;;;;1.60;1.43;;;3.90;98.20;;;;;;5073150;28;20461;-76
2020/12/05 06:33:38;;;;;;;1.60;1.40;;;3.90;98.20;;;;;;5079622;28;20822;-76
2020/12/05 06:36:40;;;;;;;1.70;1.53;;;3.90;98.20;;;;;;5079263;28;20462;-77
2020/12/05 06:39:15;;;;;;;1.70;1.43;;;3.90;98.20;;;;;;5072443;28;20933;-76
2020/12/05 06:41:43;;;;;;;2.27;2.07;;;3.90;98.20;;;;;;5077260;28;20994;-77
2020/12/05 06:44:13;;;;;;;1.70;1.60;;;3.90;98.20;;;;;;5077396;28;20572;-76
2020/12/05 06:46:47;;;;;;;1.60;1.50;;;3.90;98.20;;;;;;5075543;28;20467;-75
2020/12/05 06:49:47;;;;;;;1.70;1.40;;;3.80;98.20;;;;;;5074038;28;20951;-74
2020/12/05 06:52:47;;;;;;;1.60;1.40;;;3.80;98.20;;;;;;5075977;28;20454;-76
2020/12/05 06:55:30;;;;;;;1.73;1.63;;;3.80;98.20;;;;;;5076580;28;21016;-76
2020/12/05 06:58:02;;;;;;;1.70;1.50;;;3.80;98.20;;;;;;5071012;28;20686;-76
2020/12/05 07:00:32;;;;;;;1.60;1.40;;;3.80;98.20;;;;;;5080360;28;20486;-74
2020/12/05 07:03:01;;;;;;;1.70;1.50;;;3.70;98.20;;;;;;5078459;28;20450;-74
2020/12/05 07:05:49;;;;;;;1.63;1.50;;;3.70;98.20;;;;;;5082067;28;20486;-76
2020/12/05 07:08:38;;;;;;;1.70;1.40;;;3.70;98.20;;;;;;5079756;28;20475;-74
2020/12/05 07:11:15;;;;;;;1.80;1.70;;;3.70;98.20;;;;;;5080244;28;20537;-74
2020/12/05 07:13:43;;;;;;;1.70;1.53;;;3.70;98.20;;;;;;5078882;28;20527;-76
2020/12/05 07:16:15;;;;;;;1.70;1.50;;;3.70;98.20;;;;;;5081023;28;20451;-75
2020/12/05 07:18:43;;;;;;;1.60;1.50;;;3.70;98.20;;;;;;5074766;28;20961;-76
2020/12/05 07:21:10;;;;;;;1.60;1.40;;;3.70;98.20;;;;;;5076241;28;20485;-74
2020/12/05 07:23:37;;;;;;;1.70;1.60;;;3.70;98.20;;;;;;5081563;28;20451;-76
2020/12/05 07:26:05;;;;;;;1.60;1.40;;;3.70;98.20;;;;;;5071295;28;20839;-75
2020/12/05 07:28:31;;;;;;;1.60;1.50;;;3.70;98.20;;;;;;5073624;28;20458;-76
2020/12/05 07:30:58;;;;;;;1.73;1.63;;;3.70;98.20;;;;;;5072196;28;20451;-75
2020/12/05 07:33:24;;;;;;;1.60;1.47;;;3.70;98.20;;;;;;5074682;28;20497;-76
2020/12/05 07:35:59;;;;;;;1.70;1.50;;;3.80;98.20;;;;;;5082665;28;20951;-76
2020/12/05 07:38:28;;;;;;;1.70;1.50;;;3.80;98.20;;;;;;5080704;28;20506;-75
2020/12/05 07:40:56;;;;;;;1.60;1.40;;;3.80;98.20;;;;;;5076021;28;20482;-75
2020/12/05 07:43:22;;;;;;;1.60;1.50;;;3.90;98.20;;;;;;5082252;28;20878;-75
2020/12/05 07:45:50;;;;;;;1.60;1.50;;;3.90;98.20;;;;;;5076641;28;20462;-76
2020/12/05 07:48:19;;;;;;;1.60;1.30;;;3.90;98.20;;;;;;5066830;28;20470;-76
2020/12/05 07:50:46;;;;;;;1.60;1.40;;;4.00;98.20;;;;;;5068290;28;20902;-74
2020/12/05 07:53:34;;;;;;;1.70;1.60;;;4.00;98.20;;;;;;5068961;28;20486;-75
2020/12/05 07:56:13;;;;;;;1.60;1.40;;;4.10;98.20;;;;;;5072812;28;20465;-76
2020/12/05 07:58:47;;;;;;;1.60;1.40;;;4.10;98.20;;;;;;5072905;28;20538;-75
2020/12/05 08:01:34;;;;;;;1.70;1.50;;;4.20;98.20;;;;;;5078269;28;20523;-74
2020/12/05 08:04:42;;;;;;;1.60;1.50;;;4.30;98.20;;;;;;5073603;28;21076;-76
2020/12/05 08:07:36;;;;;;;1.60;1.50;;;4.40;98.20;;;;;;5027719;28;20488;-75
2020/12/05 08:10:04;;;;;;;1.70;1.50;;;4.40;98.20;;;;;;5072941;28;20467;-75
2020/12/05 08:13:02;;;;;;;1.60;1.50;;;4.50;98.20;;;;;;5072167;28;20458;-75
2020/12/05 08:15:30;;;;;;;1.60;1.30;;;4.60;98.20;;;;;;5078914;28;20532;-75
2020/12/05 08:18:00;;;;;;;1.60;1.30;;;4.70;98.20;;;;;;5075017;28;20521;-76
2020/12/05 08:20:27;;;;;;;2.27;2.07;;;4.70;98.20;;;;;;5075486;28;20474;-74
2020/12/05 08:22:53;;;;;;;1.60;1.40;;;4.80;98.20;;;;;;5070221;28;20458;-76
2020/12/05 08:25:20;;;;;;;1.70;1.50;;;4.80;98.20;;;;;;5066651;28;20503;-75
2020/12/05 08:27:47;;;;;;;2.23;2.03;;;4.80;98.20;;;;;;5066886;28;20471;-76
2020/12/05 08:30:16;;;;;;;3.30;3.10;;;4.80;98.20;;;;;;5063535;28;20450;-75
2020/12/05 08:32:44;;;;;;;1.60;1.40;;;4.80;98.20;;;;;;5071277;28;20458;-76
2020/12/05 08:35:13;;;;;;;1.60;1.30;;;4.80;98.20;;;;;;5069239;28;20898;-76
2020/12/05 08:37:43;;;;;;;1.60;1.40;;;4.80;98.20;;;;;;5074686;28;20464;-75
2020/12/05 08:40:15;;;;;;;1.60;1.47;;;4.90;98.20;;;;;;5071958;28;20478;-76
2020/12/05 08:42:47;;;;;;;1.60;1.40;;;5.10;98.20;;;;;;5086800;28;20895;-75
2020/12/05 08:45:14;;;;;;;1.60;1.40;;;5.20;98.20;;;;;;5077955;28;20477;-76
2020/12/05 08:47:44;;;;;;;1.60;1.30;;;5.30;98.20;;;;;;5067018;28;20502;-75
2020/12/05 08:50:23;;;;;;;1.60;1.30;;;5.40;98.20;;;;;;5072997;28;21072;-76
2020/12/05 08:52:52;;;;;;;1.60;1.30;;;5.50;98.20;;;;;;5071276;28;20492;-76
2020/12/05 08:55:21;;;;;;;1.63;1.37;;;5.50;98.20;;;;;;5074724;28;20485;-76
2020/12/05 08:57:56;;;;;;;1.60;1.30;;;5.50;98.20;;;;;;5083139;28;20461;-74
2020/12/05 09:00:24;;;;;;;1.60;1.27;;;5.50;98.20;;;;;;5083735;28;20469;-75
2020/12/05 09:02:50;;;;;;;1.60;1.30;;;5.60;98.20;;;;;;5077490;28;20497;-75
2020/12/05 09:05:17;;;;;;;1.60;1.30;;;5.60;98.20;;;;;;5080869;28;20473;-75
2020/12/05 09:07:53;;;;;;;1.60;1.40;;;5.60;98.20;;;;;;5084980;28;20481;-76
2020/12/05 09:10:19;;;;;;;1.60;1.40;;;5.60;98.20;;;;;;5076021;28;20766;-75
2020/12/05 09:12:46;;;;;;;1.60;1.40;;;5.50;98.20;;;;;;5082395;28;20464;-76
2020/12/05 09:15:14;;;;;;;1.60;1.30;;;5.50;98.20;;;;;;5080204;28;20473;-75
2020/12/05 09:17:40;;;;;;;1.60;1.30;;;5.50;98.20;;;;;;5079759;28;20453;-75
2020/12/05 09:20:15;;;;;;;1.60;1.40;;;5.50;98.20;;;;;;5077692;28;20483;-76
2020/12/05 09:22:49;;;;;;;1.60;1.30;;;5.50;98.20;;;;;;5080299;28;20475;-76
2020/12/05 09:25:30;;;;;;;1.60;1.40;;;5.50;98.20;;;;;;5076705;28;20478;-74
2020/12/05 09:27:57;;;;;;;1.60;1.40;;;5.50;98.20;;;;;;5074255;28;20465;-74
2020/12/05 09:30:25;;;;;;;1.60;1.30;;;5.50;98.20;;;;;;5081610;28;20457;-74
2020/12/05 09:32:53;;;;;;;1.60;1.40;;;5.50;98.20;;;;;;5075276;28;20492;-74
2020/12/05 09:35:21;;;;;;;1.70;1.60;;;5.50;98.20;;;;;;5077244;28;21055;-75
2020/12/05 09:37:49;;;;;;;1.60;1.30;;;5.50;98.20;;;;;;5078739;28;20476;-75
2020/12/05 09:40:18;;;;;;;1.60;1.47;;;5.50;98.20;;;;;;5080794;28;20497;-75
2020/12/05 09:42:45;;;;;;;1.60;1.30;;;5.50;98.20;;;;;;5079928;28;20458;-76
2020/12/05 09:45:13;;;;;;;1.60;1.50;;;5.60;98.20;;;;;;5062297;28;20485;-76
2020/12/05 09:47:44;;;;;;;1.60;1.40;;;5.60;98.20;;;;;;5068707;28;21020;-76
2020/12/05 09:50:12;;;;;;;1.60;1.40;;;5.70;98.20;;;;;;5066502;28;20494;-75
2020/12/05 09:52:38;;;;;;;1.60;1.30;;;5.70;98.20;;;;;;5075582;28;20676;-74
2020/12/05 09:55:06;;;;;;;1.60;1.30;;;5.80;98.20;;;;;;5077588;28;20500;-76
2020/12/05 09:57:33;;;;;;;1.60;1.40;;;5.80;98.20;;;;;;5082655;28;20481;-75
2020/12/05 10:00:00;;;;;;;1.60;1.40;;;5.90;98.20;;;;;;5069916;28;20545;-75
2020/12/05 10:02:29;;;;;;;1.60;1.40;;;5.90;98.20;;;;;;5069868;28;20481;-75
2020/12/05 10:04:56;;;;;;;1.60;1.30;;;6.00;98.20;;;;;;5071716;28;20989;-75
2020/12/05 10:07:22;;;;;;;1.60;1.30;;;6.00;98.20;;;;;;5080676;28;20523;-76
2020/12/05 10:09:49;;;;;;;1.70;1.50;;;6.00;98.20;;;;;;5071019;28;20496;-76
2020/12/05 10:12:15;;;;;;;1.60;1.40;;;6.00;98.20;;;;;;5068321;28;20869;-75
2020/12/05 10:14:42;;;;;;;1.60;1.50;;;6.10;98.20;;;;;;5077457;28;20482;-75
2020/12/05 10:17:09;;;;;;;1.60;1.43;;;6.10;98.20;;;;;;5069994;28;20847;-75
2020/12/05 10:19:35;;;;;;;1.60;1.40;;;6.20;98.20;;;;;;5073927;28;20496;-76
2020/12/05 10:22:03;;;;;;;1.60;1.30;;;6.20;98.20;;;;;;5069804;28;20736;-76
2020/12/05 10:24:29;;;;;;;1.60;1.37;;;6.20;98.20;;;;;;5075341;28;20470;-75
2020/12/05 10:26:56;;;;;;;1.60;1.40;;;6.30;98.20;;;;;;5073280;28;20524;-74
2020/12/05 10:29:24;;;;;;;1.60;1.30;;;6.30;98.20;;;;;;5073667;28;20465;-75
2020/12/05 10:31:52;;;;;;;1.60;1.50;;;6.30;98.20;;;;;;5070014;28;20461;-74
2020/12/05 10:34:19;;;;;;;1.60;1.30;;;6.30;98.20;;;;;;5066772;28;20478;-74
2020/12/05 10:36:47;;;;;;;1.60;1.40;;;6.30;98.20;;;;;;5071149;28;20493;-75
2020/12/05 10:39:15;;;;;;;1.60;1.30;;;6.30;98.20;;;;;;5068827;28;20446;-75
2020/12/05 10:41:42;;;;;;;1.60;1.40;;;6.30;98.20;;;;;;5074654;28;20462;-76
2020/12/05 10:44:11;;;;;;;1.60;1.30;;;6.30;98.20;;;;;;5073817;28;20882;-76
2020/12/05 10:46:40;;;;;;;1.60;1.33;;;6.30;98.20;;;;;;5073910;28;20458;-77
2020/12/05 10:49:06;;;;;;;1.60;1.40;;;6.30;98.20;;;;;;5066159;28;20461;-75
2020/12/05 10:51:33;;;;;;;1.60;1.40;;;6.30;98.20;;;;;;5066989;28;20478;-76
2020/12/05 10:53:59;;;;;;;1.60;1.30;;;6.30;98.00;;;;;;5069093;28;20519;-77
2020/12/05 10:56:27;;;;;;;1.60;1.40;;;6.30;98.20;;;;;;5072531;28;20498;-76
2020/12/05 10:58:53;;;;;;;1.60;1.30;;;6.30;98.20;;;;;;5074510;28;20466;-76
2020/12/05 11:01:20;;;;;;;1.60;1.27;;;6.40;98.20;;;;;;5072054;28;20504;-76
2020/12/05 11:03:47;;;;;;;1.60;1.30;;;6.40;98.20;;;;;;5075442;28;20477;-76
2020/12/05 11:06:19;;;;;;;1.60;1.30;;;6.40;98.20;;;;;;5072200;28;20454;-75
2020/12/05 11:08:46;;;;;;;1.60;1.43;;;6.50;98.20;;;;;;5065761;28;21092;-77
2020/12/05 11:11:12;;;;;;;1.60;1.40;;;6.50;97.50;;;;;;5055922;28;20481;-77
2020/12/05 11:13:39;;;;;;;1.60;1.30;;;6.50;97.60;;;;;;5067252;28;20695;-76
2020/12/05 11:16:06;;;;;;;1.60;1.30;;;6.50;97.60;;;;;;5068654;28;20520;-76
2020/12/05 11:18:32;;;;;;;1.60;1.30;;;6.60;97.70;;;;;;5067912;28;20462;-76
2020/12/05 11:20:59;;;;;;;1.60;1.30;;;6.60;97.40;;;;;;5070633;28;20504;-76
2020/12/05 11:23:25;;;;;;;1.60;1.37;;;6.60;96.20;;;;;;5066273;28;20535;-76
2020/12/05 11:25:52;;;;;;;1.60;1.30;;;6.60;95.90;;;;;;5066827;28;20466;-77
2020/12/05 11:28:18;;;;;;;1.80;1.70;;;6.60;95.50;;;;;;5061429;28;20535;-76
2020/12/05 11:30:46;;;;;;;1.60;1.20;;;6.60;95.30;;;;;;5051521;28;20470;-74
2020/12/05 11:33:12;;;;;;;1.60;1.30;;;6.60;95.80;;;;;;5061665;28;20473;-75
2020/12/05 11:35:39;;;;;;;1.60;1.30;;;6.60;95.20;;;;;;5069513;28;20539;-76
2020/12/05 11:38:05;;;;;;;1.60;1.40;;;6.60;95.60;;;;;;5060579;28;20458;-76
2020/12/05 11:40:36;;;;;;;1.60;1.40;;;6.60;95.00;;;;;;5072979;28;20489;-75
2020/12/05 11:43:02;;;;;;;1.57;1.20;;;6.60;94.20;;;;;;5071959;28;20456;-75
2020/12/05 11:45:29;;;;;;;1.60;1.30;;;6.60;93.80;;;;;;5067394;28;20529;-75
2020/12/05 11:47:56;;;;;;;1.60;1.30;;;6.60;93.70;;;;;;5068393;28;20499;-76
2020/12/05 11:50:23;;;;;;;1.60;1.30;;;6.60;94.20;;;;;;5070337;28;20450;-76
2020/12/05 11:52:50;;;;;;;1.60;1.30;;;6.60;93.10;;;;;;5065357;28;21138;-75
2020/12/05 11:55:16;;;;;;;1.60;1.30;;;6.60;92.50;;;;;;5069041;28;20517;-75
2020/12/05 11:57:43;;;;;;;1.60;1.30;;;6.60;92.40;;;;;;5066090;28;20473;-76
2020/12/05 12:00:09;;;;;;;1.60;1.20;;;6.60;92.70;;;;;;5066803;28;20483;-75
2020/12/05 12:02:36;;;;;;;1.60;1.20;;;6.60;92.20;;;;;;5059307;28;20554;-76
2020/12/05 12:05:04;;;;;;;1.60;1.40;;;6.60;92.00;;;;;;5065531;28;20524;-74
2020/12/05 12:07:31;;;;;;;1.60;1.30;;;6.60;92.50;;;;;;5068088;28;20462;-76
2020/12/05 12:09:58;;;;;;;1.60;1.50;;;6.60;92.00;;;;;;5066190;28;20519;-76
2020/12/05 12:12:24;;;;;;;1.60;1.20;;;6.60;92.70;;;;;;5063368;28;20458;-75
2020/12/05 12:14:51;;;;;;;1.53;1.23;;;6.60;92.60;;;;;;5059916;28;20505;-75
2020/12/05 12:17:17;;;;;;;1.60;1.27;;;6.70;91.70;;;;;;5058222;28;20713;-74
2020/12/05 12:19:44;;;;;;;1.60;1.40;;;6.70;91.70;;;;;;5061512;28;20812;-75
2020/12/05 12:22:11;;;;;;;1.60;1.40;;;6.70;91.20;;;;;;5065465;28;20465;-74
2020/12/05 12:24:37;;;;;;;1.60;1.30;;;6.70;91.20;;;;;;5061051;28;20482;-74
2020/12/05 12:27:04;;;;;;;1.60;1.40;;;6.70;90.70;;;;;;5063399;28;20517;-74
2020/12/05 12:29:30;;;;;;;1.60;1.30;;;6.80;91.00;;;;;;5063509;28;20493;-75
2020/12/05 12:31:59;;;;;;;1.60;1.30;;;6.80;90.60;;;;;;5057901;28;20512;-75
2020/12/05 12:34:26;;;;;;;1.60;1.20;;;6.80;90.50;;;;;;5063162;28;20478;-75
2020/12/05 12:36:52;;;;;;;1.57;1.20;;;6.90;90.30;;;;;;5062299;28;20521;-75
2020/12/05 12:39:20;;;;;;;1.60;1.40;;;7.00;90.40;;;;;;5067761;28;20868;-74
2020/12/05 12:41:47;;;;;;;1.60;1.30;;;7.10;90.60;;;;;;5062418;28;21430;-76
2020/12/05 12:44:13;;;;;;;1.60;1.33;;;7.30;90.00;;;;;;5066883;28;20547;-74
2020/12/05 12:46:49;;;;;;;1.60;1.30;;;7.50;90.20;;;;;;5061343;28;20462;-75
2020/12/05 12:49:15;;;;;;;1.60;1.40;;;7.60;89.20;;;;;;5066482;28;21406;-74
2020/12/05 12:51:41;;;;;;;1.60;1.30;;;7.80;88.80;;;;;;5068911;28;20454;-75
2020/12/05 12:54:08;;;;;;;1.60;1.20;;;7.90;88.60;;;;;;5068225;28;21092;-76
2020/12/05 12:56:37;;;;;;;1.60;1.20;;;8.00;88.00;;;;;;5064155;28;20615;-74
2020/12/05 12:59:04;;;;;;;1.60;1.30;;;8.10;87.30;;;;;;5070092;28;20525;-75
2020/12/05 13:01:30;;;;;;;1.60;1.20;;;8.10;86.90;;;;;;5069084;28;20715;-74
2020/12/05 13:03:57;;;;;;;1.60;1.20;;;8.20;87.40;;;;;;5063473;28;20749;-75
2020/12/05 13:06:23;;;;;;;1.60;1.30;;;8.20;87.30;;;;;;5068480;28;20458;-75